sensor_id;sensor_type;location;lat;lon;timestamp;temperature;humidity
9658;DHT22;4867;48.112;11.622;2023-03-25T00:07:21;8.70;99.90
9658;DHT22;4867;48.112;11.622;2023-03-25T00:09:49;8.50;99.90
9658;DHT22;4867;48.112;11.622;2023-03-25T00:12:16;8.50;99.90
9658;DHT22;4867;48.112;11.622;2023-03-25T00:14:45;8.50;99.90
9658;DHT22;4867;48.112;11.622;2023-03-25T00:17:22;8.60;99.90
9658;DHT22;4867;48.112;11.622;2023-03-25T00:19:49;8.50;99.90
9658;DHT22;4867;48.112;11.622;2023-03-25T00:22:18;8.50;99.90
9658;DHT22;4867;48.112;11.622;2023-03-25T00:24:45;8.40;99.90
9658;DHT22;4867;48.112;11.622;2023-03-25T00:27:13;8.40;99.90
9658;DHT22;4867;48.112;11.622;2023-03-25T00:29:40;8.40;99.90
9658;DHT22;4867;48.112;11.622;2023-03-25T00:32:11;8.40;99.90
9658;DHT22;4867;48.112;11.622;2023-03-25T00:34:39;8.40;99.90
9658;DHT22;4867;48.112;11.622;2023-03-25T00:37:08;8.40;99.90
9658;DHT22;4867;48.112;11.622;2023-03-25T00:39:36;8.40;99.90
9658;DHT22;4867;48.112;11.622;2023-03-25T00:42:04;8.40;99.90
9658;DHT22;4867;48.112;11.622;2023-03-25T00:44:31;8.40;99.90
9658;DHT22;4867;48.112;11.622;2023-03-25T00:46:59;8.40;99.90
9658;DHT22;4867;48.112;11.622;2023-03-25T00:49:26;8.30;99.90
9658;DHT22;4867;48.112;11.622;2023-03-25T00:51:55;8.40;99.90
9658;DHT22;4867;48.112;11.622;2023-03-25T00:54:23;8.40;99.90
9658;DHT22;4867;48.112;11.622;2023-03-25T00:56:51;8.40;99.90
9658;DHT22;4867;48.112;11.622;2023-03-25T00:59:19;8.50;99.90
9658;DHT22;4867;48.112;11.622;2023-03-25T01:01:46;8.60;99.90
9658;DHT22;4867;48.112;11.622;2023-03-25T01:04:14;8.60;99.90
9658;DHT22;4867;48.112;11.622;2023-03-25T01:06:42;8.70;99.90
9658;DHT22;4867;48.112;11.622;2023-03-25T01:09:12;8.70;99.90
9658;DHT22;4867;48.112;11.622;2023-03-25T01:11:42;8.80;99.90
9658;DHT22;4867;48.112;11.622;2023-03-25T01:14:14;8.90;99.90
9658;DHT22;4867;48.112;11.622;2023-03-25T01:16:42;8.80;99.90
9658;DHT22;4867;48.112;11.622;2023-03-25T01:19:11;8.80;99.90
9658;DHT22;4867;48.112;11.622;2023-03-25T01:21:38;8.80;99.90
9658;DHT22;4867;48.112;11.622;2023-03-25T01:24:09;8.80;99.90
9658;DHT22;4867;48.112;11.622;2023-03-25T01:26:37;8.90;99.90
9658;DHT22;4867;48.112;11.622;2023-03-25T01:29:07;8.90;99.90
9658;DHT22;4867;48.112;11.622;2023-03-25T01:31:34;9.00;99.90
9658;DHT22;4867;48.112;11.622;2023-03-25T01:34:02;9.00;99.90
9658;DHT22;4867;48.112;11.622;2023-03-25T01:36:30;9.00;99.90
9658;DHT22;4867;48.112;11.622;2023-03-25T01:38:58;9.00;99.90
9658;DHT22;4867;48.112;11.622;2023-03-25T01:41:27;9.00;99.90
9658;DHT22;4867;48.112;11.622;2023-03-25T01:46:49;9.00;99.90
9658;DHT22;4867;48.112;11.622;2023-03-25T01:52:02;9.10;99.90
9658;DHT22;4867;48.112;11.622;2023-03-25T01:54:31;9.00;99.90
9658;DHT22;4867;48.112;11.622;2023-03-25T01:56:59;9.10;99.90
9658;DHT22;4867;48.112;11.622;2023-03-25T01:59:27;9.10;99.90
9658;DHT22;4867;48.112;11.622;2023-03-25T02:01:56;9.10;99.90
9658;DHT22;4867;48.112;11.622;2023-03-25T02:04:54;9.10;99.90
9658;DHT22;4867;48.112;11.622;2023-03-25T02:07:31;9.10;99.90
9658;DHT22;4867;48.112;11.622;2023-03-25T02:10:04;9.20;99.90
9658;DHT22;4867;48.112;11.622;2023-03-25T02:12:32;9.20;99.90
9658;DHT22;4867;48.112;11.622;2023-03-25T02:15:03;9.30;99.90
9658;DHT22;4867;48.112;11.622;2023-03-25T02:18:11;9.20;99.90
9658;DHT22;4867;48.112;11.622;2023-03-25T02:20:49;9.20;99.90
9658;DHT22;4867;48.112;11.622;2023-03-25T02:23:28;9.20;99.90
9658;DHT22;4867;48.112;11.622;2023-03-25T02:28:56;9.10;99.90
9658;DHT22;4867;48.112;11.622;2023-03-25T02:37:28;9.00;99.90
9658;DHT22;4867;48.112;11.622;2023-03-25T02:40:10;8.90;99.90
9658;DHT22;4867;48.112;11.622;2023-03-25T02:45:37;8.80;99.90
9658;DHT22;4867;48.112;11.622;2023-03-25T02:48:18;8.80;99.90
9658;DHT22;4867;48.112;11.622;2023-03-25T02:50:56;8.70;99.90
9658;DHT22;4867;48.112;11.622;2023-03-25T02:53:32;8.60;99.90
9658;DHT22;4867;48.112;11.622;2023-03-25T02:56:03;8.60;99.90
9658;DHT22;4867;48.112;11.622;2023-03-25T02:58:32;8.60;99.90
9658;DHT22;4867;48.112;11.622;2023-03-25T03:01:00;8.60;99.90
9658;DHT22;4867;48.112;11.622;2023-03-25T03:03:27;8.60;99.90
9658;DHT22;4867;48.112;11.622;2023-03-25T03:05:59;8.50;99.90
9658;DHT22;4867;48.112;11.622;2023-03-25T03:14:13;8.50;99.90
9658;DHT22;4867;48.112;11.622;2023-03-25T03:16:47;8.50;99.90
9658;DHT22;4867;48.112;11.622;2023-03-25T03:21:57;8.50;99.90
9658;DHT22;4867;48.112;11.622;2023-03-25T03:24:34;8.50;99.90
9658;DHT22;4867;48.112;11.622;2023-03-25T03:27:21;8.40;99.90
9658;DHT22;4867;48.112;11.622;2023-03-25T03:29:56;8.40;99.90
9658;DHT22;4867;48.112;11.622;2023-03-25T03:32:35;8.40;99.90
9658;DHT22;4867;48.112;11.622;2023-03-25T03:35:08;8.30;99.90
9658;DHT22;4867;48.112;11.622;2023-03-25T03:37:40;8.30;99.90
9658;DHT22;4867;48.112;11.622;2023-03-25T03:40:17;8.20;99.90
9658;DHT22;4867;48.112;11.622;2023-03-25T03:42:57;8.20;99.90
9658;DHT22;4867;48.112;11.622;2023-03-25T03:45:33;8.20;99.90
9658;DHT22;4867;48.112;11.622;2023-03-25T03:48:03;8.10;99.90
9658;DHT22;4867;48.112;11.622;2023-03-25T03:50:41;8.10;99.90
9658;DHT22;4867;48.112;11.622;2023-03-25T03:53:19;8.10;99.90
9658;DHT22;4867;48.112;11.622;2023-03-25T03:55:52;8.00;99.90
9658;DHT22;4867;48.112;11.622;2023-03-25T03:58:25;8.00;99.90
9658;DHT22;4867;48.112;11.622;2023-03-25T04:01:18;8.00;99.90
9658;DHT22;4867;48.112;11.622;2023-03-25T04:04:00;8.00;99.90
9658;DHT22;4867;48.112;11.622;2023-03-25T04:06:30;7.90;99.90
9658;DHT22;4867;48.112;11.622;2023-03-25T04:09:07;7.80;99.90
9658;DHT22;4867;48.112;11.622;2023-03-25T04:11:40;7.80;99.90
9658;DHT22;4867;48.112;11.622;2023-03-25T04:14:09;7.80;99.90
9658;DHT22;4867;48.112;11.622;2023-03-25T04:16:37;7.80;99.90
9658;DHT22;4867;48.112;11.622;2023-03-25T04:19:05;7.80;99.90
9658;DHT22;4867;48.112;11.622;2023-03-25T04:21:32;7.70;99.90
9658;DHT22;4867;48.112;11.622;2023-03-25T04:23:59;7.70;99.90
9658;DHT22;4867;48.112;11.622;2023-03-25T04:26:28;7.70;99.90
9658;DHT22;4867;48.112;11.622;2023-03-25T04:29:00;7.70;99.90
9658;DHT22;4867;48.112;11.622;2023-03-25T04:31:29;7.70;99.90
9658;DHT22;4867;48.112;11.622;2023-03-25T04:33:59;7.60;99.90
9658;DHT22;4867;48.112;11.622;2023-03-25T04:36:28;7.60;99.90
9658;DHT22;4867;48.112;11.622;2023-03-25T04:38:59;7.60;99.90
9658;DHT22;4867;48.112;11.622;2023-03-25T04:41:27;7.60;99.90
9658;DHT22;4867;48.112;11.622;2023-03-25T04:43:54;7.70;99.90
9658;DHT22;4867;48.112;11.622;2023-03-25T04:46:21;7.60;99.90
9658;DHT22;4867;48.112;11.622;2023-03-25T04:48:49;7.60;99.90
9658;DHT22;4867;48.112;11.622;2023-03-25T04:51:16;7.70;99.90
9658;DHT22;4867;48.112;11.622;2023-03-25T04:53:44;7.70;99.90
9658;DHT22;4867;48.112;11.622;2023-03-25T04:56:17;7.70;99.90
9658;DHT22;4867;48.112;11.622;2023-03-25T04:58:44;7.70;99.90
9658;DHT22;4867;48.112;11.622;2023-03-25T05:01:30;7.90;99.90
9658;DHT22;4867;48.112;11.622;2023-03-25T05:04:00;7.90;99.90
9658;DHT22;4867;48.112;11.622;2023-03-25T05:06:35;7.90;99.90
9658;DHT22;4867;48.112;11.622;2023-03-25T05:09:06;7.90;99.90
9658;DHT22;4867;48.112;11.622;2023-03-25T05:11:35;7.90;99.90
9658;DHT22;4867;48.112;11.622;2023-03-25T05:14:04;7.90;99.90
9658;DHT22;4867;48.112;11.622;2023-03-25T05:16:32;7.90;99.90
9658;DHT22;4867;48.112;11.622;2023-03-25T05:19:00;7.90;99.90
9658;DHT22;4867;48.112;11.622;2023-03-25T05:21:29;7.80;99.90
9658;DHT22;4867;48.112;11.622;2023-03-25T05:23:57;8.00;99.90
9658;DHT22;4867;48.112;11.622;2023-03-25T05:26:27;7.90;99.90
9658;DHT22;4867;48.112;11.622;2023-03-25T05:29:04;8.00;99.90
9658;DHT22;4867;48.112;11.622;2023-03-25T05:31:32;8.00;99.90
9658;DHT22;4867;48.112;11.622;2023-03-25T05:34:00;8.00;99.90
9658;DHT22;4867;48.112;11.622;2023-03-25T05:36:27;8.00;99.90
9658;DHT22;4867;48.112;11.622;2023-03-25T05:38:55;8.00;99.90
9658;DHT22;4867;48.112;11.622;2023-03-25T05:41:26;8.00;99.90
9658;DHT22;4867;48.112;11.622;2023-03-25T05:44:06;8.10;99.90
9658;DHT22;4867;48.112;11.622;2023-03-25T05:46:34;8.20;99.90
9658;DHT22;4867;48.112;11.622;2023-03-25T05:49:01;8.30;99.90
9658;DHT22;4867;48.112;11.622;2023-03-25T05:51:31;8.50;99.90
9658;DHT22;4867;48.112;11.622;2023-03-25T05:54:00;8.50;99.90
9658;DHT22;4867;48.112;11.622;2023-03-25T05:56:28;8.50;99.90
9658;DHT22;4867;48.112;11.622;2023-03-25T05:58:55;8.50;99.90
9658;DHT22;4867;48.112;11.622;2023-03-25T06:01:23;8.50;99.90
9658;DHT22;4867;48.112;11.622;2023-03-25T06:04:00;8.50;99.90
9658;DHT22;4867;48.112;11.622;2023-03-25T06:06:31;8.50;99.90
9658;DHT22;4867;48.112;11.622;2023-03-25T06:08:59;8.50;99.90
9658;DHT22;4867;48.112;11.622;2023-03-25T06:11:27;8.50;99.90
9658;DHT22;4867;48.112;11.622;2023-03-25T06:13:55;8.50;99.90
9658;DHT22;4867;48.112;11.622;2023-03-25T06:16:24;8.50;99.90
9658;DHT22;4867;48.112;11.622;2023-03-25T06:18:53;8.50;99.90
9658;DHT22;4867;48.112;11.622;2023-03-25T06:21:28;8.50;99.90
9658;DHT22;4867;48.112;11.622;2023-03-25T06:23:57;8.50;99.90
9658;DHT22;4867;48.112;11.622;2023-03-25T06:26:25;8.50;99.90
9658;DHT22;4867;48.112;11.622;2023-03-25T06:28:52;8.60;99.90
9658;DHT22;4867;48.112;11.622;2023-03-25T06:31:24;8.50;99.90
9658;DHT22;4867;48.112;11.622;2023-03-25T06:33:59;8.60;99.90
9658;DHT22;4867;48.112;11.622;2023-03-25T06:36:27;8.60;99.90
9658;DHT22;4867;48.112;11.622;2023-03-25T06:38:54;8.50;99.90
9658;DHT22;4867;48.112;11.622;2023-03-25T06:41:24;8.40;99.90
9658;DHT22;4867;48.112;11.622;2023-03-25T06:44:15;8.50;99.90
9658;DHT22;4867;48.112;11.622;2023-03-25T06:47:21;8.40;99.90
9658;DHT22;4867;48.112;11.622;2023-03-25T06:49:49;8.40;99.90
9658;DHT22;4867;48.112;11.622;2023-03-25T06:52:17;8.40;99.90
9658;DHT22;4867;48.112;11.622;2023-03-25T06:54:44;8.30;99.90
9658;DHT22;4867;48.112;11.622;2023-03-25T06:57:11;8.20;99.90
9658;DHT22;4867;48.112;11.622;2023-03-25T06:59:38;8.30;99.90
9658;DHT22;4867;48.112;11.622;2023-03-25T07:02:06;8.20;99.90
9658;DHT22;4867;48.112;11.622;2023-03-25T07:04:33;8.20;99.90
9658;DHT22;4867;48.112;11.622;2023-03-25T07:07:01;8.20;99.90
9658;DHT22;4867;48.112;11.622;2023-03-25T07:09:28;8.20;99.90
9658;DHT22;4867;48.112;11.622;2023-03-25T07:11:55;8.20;99.90
9658;DHT22;4867;48.112;11.622;2023-03-25T07:14:24;8.20;99.90
9658;DHT22;4867;48.112;11.622;2023-03-25T07:16:51;8.20;99.90
9658;DHT22;4867;48.112;11.622;2023-03-25T07:19:18;8.20;99.90
9658;DHT22;4867;48.112;11.622;2023-03-25T07:21:46;8.20;99.90
9658;DHT22;4867;48.112;11.622;2023-03-25T07:24:13;8.20;99.90
9658;DHT22;4867;48.112;11.622;2023-03-25T07:26:40;8.20;99.90
9658;DHT22;4867;48.112;11.622;2023-03-25T07:29:09;8.20;99.90
9658;DHT22;4867;48.112;11.622;2023-03-25T07:31:36;8.30;99.90
9658;DHT22;4867;48.112;11.622;2023-03-25T07:34:06;8.30;99.90
9658;DHT22;4867;48.112;11.622;2023-03-25T07:36:34;8.40;99.90
9658;DHT22;4867;48.112;11.622;2023-03-25T07:39:02;8.40;99.90
9658;DHT22;4867;48.112;11.622;2023-03-25T07:41:29;8.40;99.90
9658;DHT22;4867;48.112;11.622;2023-03-25T07:44:22;8.40;99.90
9658;DHT22;4867;48.112;11.622;2023-03-25T07:46:50;8.50;99.90
9658;DHT22;4867;48.112;11.622;2023-03-25T07:49:17;8.50;99.90
9658;DHT22;4867;48.112;11.622;2023-03-25T07:51:45;8.50;99.90
9658;DHT22;4867;48.112;11.622;2023-03-25T07:54:12;8.60;99.90
9658;DHT22;4867;48.112;11.622;2023-03-25T07:56:40;8.60;99.90
9658;DHT22;4867;48.112;11.622;2023-03-25T07:59:07;8.70;99.90
9658;DHT22;4867;48.112;11.622;2023-03-25T08:01:35;8.80;99.90
9658;DHT22;4867;48.112;11.622;2023-03-25T08:04:03;8.90;99.90
9658;DHT22;4867;48.112;11.622;2023-03-25T08:06:30;8.80;99.90
9658;DHT22;4867;48.112;11.622;2023-03-25T08:08:57;8.90;99.90
9658;DHT22;4867;48.112;11.622;2023-03-25T08:11:25;8.80;99.90
9658;DHT22;4867;48.112;11.622;2023-03-25T08:13:52;8.80;99.90
9658;DHT22;4867;48.112;11.622;2023-03-25T08:16:19;9.10;99.90
9658;DHT22;4867;48.112;11.622;2023-03-25T08:18:46;9.20;99.90
9658;DHT22;4867;48.112;11.622;2023-03-25T08:21:14;9.10;99.90
9658;DHT22;4867;48.112;11.622;2023-03-25T08:23:41;9.20;99.90
9658;DHT22;4867;48.112;11.622;2023-03-25T08:26:10;9.30;99.90
9658;DHT22;4867;48.112;11.622;2023-03-25T08:28:37;9.40;99.90
9658;DHT22;4867;48.112;11.622;2023-03-25T08:31:06;9.40;99.90
9658;DHT22;4867;48.112;11.622;2023-03-25T08:33:34;9.40;99.90
9658;DHT22;4867;48.112;11.622;2023-03-25T08:36:06;9.40;99.90
9658;DHT22;4867;48.112;11.622;2023-03-25T08:38:36;9.50;99.90
9658;DHT22;4867;48.112;11.622;2023-03-25T08:41:03;9.50;99.90
9658;DHT22;4867;48.112;11.622;2023-03-25T08:43:31;9.60;99.90
9658;DHT22;4867;48.112;11.622;2023-03-25T08:45:58;9.60;99.90
9658;DHT22;4867;48.112;11.622;2023-03-25T08:48:25;9.40;99.90
9658;DHT22;4867;48.112;11.622;2023-03-25T08:50:52;9.40;99.90
9658;DHT22;4867;48.112;11.622;2023-03-25T08:53:20;9.50;99.90
9658;DHT22;4867;48.112;11.622;2023-03-25T08:55:53;9.60;99.90
9658;DHT22;4867;48.112;11.622;2023-03-25T08:58:22;9.70;99.90
9658;DHT22;4867;48.112;11.622;2023-03-25T09:00:51;9.80;99.90
9658;DHT22;4867;48.112;11.622;2023-03-25T09:03:23;9.90;99.90
9658;DHT22;4867;48.112;11.622;2023-03-25T09:05:50;9.80;99.90
9658;DHT22;4867;48.112;11.622;2023-03-25T09:08:18;9.80;99.90
9658;DHT22;4867;48.112;11.622;2023-03-25T09:10:45;9.70;99.90
9658;DHT22;4867;48.112;11.622;2023-03-25T09:13:12;9.60;99.90
9658;DHT22;4867;48.112;11.622;2023-03-25T09:15:40;9.60;99.90
9658;DHT22;4867;48.112;11.622;2023-03-25T09:18:07;9.80;99.90
9658;DHT22;4867;48.112;11.622;2023-03-25T09:20:36;9.80;99.90
9658;DHT22;4867;48.112;11.622;2023-03-25T09:23:03;9.90;99.90
9658;DHT22;4867;48.112;11.622;2023-03-25T09:25:31;9.90;99.90
9658;DHT22;4867;48.112;11.622;2023-03-25T09:27:58;9.80;99.90
9658;DHT22;4867;48.112;11.622;2023-03-25T09:30:25;10.10;99.90
9658;DHT22;4867;48.112;11.622;2023-03-25T09:32:53;10.20;99.90
9658;DHT22;4867;48.112;11.622;2023-03-25T09:35:20;10.10;99.90
9658;DHT22;4867;48.112;11.622;2023-03-25T09:37:48;10.20;99.90
9658;DHT22;4867;48.112;11.622;2023-03-25T09:40:19;10.30;99.90
9658;DHT22;4867;48.112;11.622;2023-03-25T09:45:44;10.40;99.90
9658;DHT22;4867;48.112;11.622;2023-03-25T09:50:43;10.70;99.90
9658;DHT22;4867;48.112;11.622;2023-03-25T09:53:31;10.70;99.90
9658;DHT22;4867;48.112;11.622;2023-03-25T09:56:03;10.80;99.90
9658;DHT22;4867;48.112;11.622;2023-03-25T09:58:51;11.10;99.90
9658;DHT22;4867;48.112;11.622;2023-03-25T10:12:27;11.50;99.90
9658;DHT22;4867;48.112;11.622;2023-03-25T10:17:43;11.50;99.90
9658;DHT22;4867;48.112;11.622;2023-03-25T10:29:03;11.80;99.90
9658;DHT22;4867;48.112;11.622;2023-03-25T10:31:36;11.80;99.90
9658;DHT22;4867;48.112;11.622;2023-03-25T10:34:17;11.60;99.90
9658;DHT22;4867;48.112;11.622;2023-03-25T10:36:49;11.70;99.90
9658;DHT22;4867;48.112;11.622;2023-03-25T10:39:20;11.60;99.90
9658;DHT22;4867;48.112;11.622;2023-03-25T10:41:56;11.50;99.90
9658;DHT22;4867;48.112;11.622;2023-03-25T10:44:26;11.70;99.90
9658;DHT22;4867;48.112;11.622;2023-03-25T10:47:22;11.60;99.90
9658;DHT22;4867;48.112;11.622;2023-03-25T10:49:51;11.40;99.90
9658;DHT22;4867;48.112;11.622;2023-03-25T10:52:19;11.20;99.90
9658;DHT22;4867;48.112;11.622;2023-03-25T10:54:52;11.10;99.90
9658;DHT22;4867;48.112;11.622;2023-03-25T10:57:27;11.20;99.90
9658;DHT22;4867;48.112;11.622;2023-03-25T11:02:25;11.40;99.90
9658;DHT22;4867;48.112;11.622;2023-03-25T11:04:56;11.50;99.90
9658;DHT22;4867;48.112;11.622;2023-03-25T11:07:35;11.50;99.90
9658;DHT22;4867;48.112;11.622;2023-03-25T11:12:40;11.70;99.90
9658;DHT22;4867;48.112;11.622;2023-03-25T11:15:22;11.90;99.90
9658;DHT22;4867;48.112;11.622;2023-03-25T11:20:27;12.20;99.90
9658;DHT22;4867;48.112;11.622;2023-03-25T11:23:03;12.30;99.90
9658;DHT22;4867;48.112;11.622;2023-03-25T11:25:36;12.30;99.90
9658;DHT22;4867;48.112;11.622;2023-03-25T11:28:15;12.20;99.90
9658;DHT22;4867;48.112;11.622;2023-03-25T11:33:36;12.00;99.90
9658;DHT22;4867;48.112;11.622;2023-03-25T11:36:21;12.00;99.90
9658;DHT22;4867;48.112;11.622;2023-03-25T11:38:55;12.00;99.90
9658;DHT22;4867;48.112;11.622;2023-03-25T11:41:26;11.90;99.90
9658;DHT22;4867;48.112;11.622;2023-03-25T11:43:54;11.80;99.90
9658;DHT22;4867;48.112;11.622;2023-03-25T11:46:21;11.80;99.90
9658;DHT22;4867;48.112;11.622;2023-03-25T11:48:49;11.70;99.90
9658;DHT22;4867;48.112;11.622;2023-03-25T11:51:26;11.80;99.90
9658;DHT22;4867;48.112;11.622;2023-03-25T11:53:57;11.90;99.90
9658;DHT22;4867;48.112;11.622;2023-03-25T11:56:35;11.90;99.90
9658;DHT22;4867;48.112;11.622;2023-03-25T11:59:08;11.90;99.90
9658;DHT22;4867;48.112;11.622;2023-03-25T12:01:48;11.90;99.90
9658;DHT22;4867;48.112;11.622;2023-03-25T12:04:23;11.80;99.90
9658;DHT22;4867;48.112;11.622;2023-03-25T12:06:56;11.60;99.90
9658;DHT22;4867;48.112;11.622;2023-03-25T12:09:26;11.50;99.90
9658;DHT22;4867;48.112;11.622;2023-03-25T12:14:42;11.70;99.90
9658;DHT22;4867;48.112;11.622;2023-03-25T12:17:21;11.80;99.90
9658;DHT22;4867;48.112;11.622;2023-03-25T12:20:13;11.80;99.90
9658;DHT22;4867;48.112;11.622;2023-03-25T12:37:56;11.50;99.90
9658;DHT22;4867;48.112;11.622;2023-03-25T12:43:25;11.70;99.90
9658;DHT22;4867;48.112;11.622;2023-03-25T12:46:01;11.60;99.90
9658;DHT22;4867;48.112;11.622;2023-03-25T12:51:41;11.70;99.90
9658;DHT22;4867;48.112;11.622;2023-03-25T12:57:16;12.00;99.90
9658;DHT22;4867;48.112;11.622;2023-03-25T12:59:46;12.00;99.90
9658;DHT22;4867;48.112;11.622;2023-03-25T13:06:02;12.20;99.90
9658;DHT22;4867;48.112;11.622;2023-03-25T13:11:09;12.40;99.90
9658;DHT22;4867;48.112;11.622;2023-03-25T13:13:39;12.50;99.90
9658;DHT22;4867;48.112;11.622;2023-03-25T13:16:13;12.30;99.90
9658;DHT22;4867;48.112;11.622;2023-03-25T13:19:18;11.90;99.90
9658;DHT22;4867;48.112;11.622;2023-03-25T13:21:51;11.70;99.90
9658;DHT22;4867;48.112;11.622;2023-03-25T13:24:23;11.60;99.90
9658;DHT22;4867;48.112;11.622;2023-03-25T13:26:54;11.80;99.90
9658;DHT22;4867;48.112;11.622;2023-03-25T13:29:30;11.90;99.90
9658;DHT22;4867;48.112;11.622;2023-03-25T13:32:05;11.90;99.90
9658;DHT22;4867;48.112;11.622;2023-03-25T13:37:37;11.40;99.90
9658;DHT22;4867;48.112;11.622;2023-03-25T13:45:19;11.50;99.90
9658;DHT22;4867;48.112;11.622;2023-03-25T13:48:10;11.70;99.90
9658;DHT22;4867;48.112;11.622;2023-03-25T13:50:40;11.60;99.90
9658;DHT22;4867;48.112;11.622;2023-03-25T13:53:30;11.60;99.90
9658;DHT22;4867;48.112;11.622;2023-03-25T13:58:47;11.60;99.90
9658;DHT22;4867;48.112;11.622;2023-03-25T14:01:50;11.70;99.90
9658;DHT22;4867;48.112;11.622;2023-03-25T14:12:52;11.60;99.90
9658;DHT22;4867;48.112;11.622;2023-03-25T14:15:33;11.50;99.90
9658;DHT22;4867;48.112;11.622;2023-03-25T14:18:02;11.60;99.90
9658;DHT22;4867;48.112;11.622;2023-03-25T14:20:36;11.70;99.90
9658;DHT22;4867;48.112;11.622;2023-03-25T14:23:12;11.70;99.90
9658;DHT22;4867;48.112;11.622;2023-03-25T14:28:18;11.60;99.90
9658;DHT22;4867;48.112;11.622;2023-03-25T14:31:30;11.70;99.90
9658;DHT22;4867;48.112;11.622;2023-03-25T14:39:56;11.60;99.90
9658;DHT22;4867;48.112;11.622;2023-03-25T14:44:39;11.60;99.90
9658;DHT22;4867;48.112;11.622;2023-03-25T14:49:53;11.70;99.90
9658;DHT22;4867;48.112;11.622;2023-03-25T14:52:29;11.80;99.90
9658;DHT22;4867;48.112;11.622;2023-03-25T14:55:00;11.90;99.90
9658;DHT22;4867;48.112;11.622;2023-03-25T14:57:41;12.10;99.90
9658;DHT22;4867;48.112;11.622;2023-03-25T15:00:17;12.20;99.90
9658;DHT22;4867;48.112;11.622;2023-03-25T15:02:57;12.10;99.90
9658;DHT22;4867;48.112;11.622;2023-03-25T15:05:27;12.10;99.90
9658;DHT22;4867;48.112;11.622;2023-03-25T15:07:59;12.20;99.90
9658;DHT22;4867;48.112;11.622;2023-03-25T15:10:39;12.10;99.90
9658;DHT22;4867;48.112;11.622;2023-03-25T15:13:25;11.90;99.90
9658;DHT22;4867;48.112;11.622;2023-03-25T15:16:03;12.00;99.90
9658;DHT22;4867;48.112;11.622;2023-03-25T15:21:03;12.20;99.90
9658;DHT22;4867;48.112;11.622;2023-03-25T15:26:05;12.40;99.90
9658;DHT22;4867;48.112;11.622;2023-03-25T15:31:53;12.40;99.90
9658;DHT22;4867;48.112;11.622;2023-03-25T15:40:21;12.00;99.90
9658;DHT22;4867;48.112;11.622;2023-03-25T15:51:07;11.90;99.90
9658;DHT22;4867;48.112;11.622;2023-03-25T15:56:30;11.70;99.90
9658;DHT22;4867;48.112;11.622;2023-03-25T16:01:43;11.40;99.90
9658;DHT22;4867;48.112;11.622;2023-03-25T16:06:51;11.20;99.90
9658;DHT22;4867;48.112;11.622;2023-03-25T16:09:22;11.40;99.90
9658;DHT22;4867;48.112;11.622;2023-03-25T16:12:02;11.40;99.90
9658;DHT22;4867;48.112;11.622;2023-03-25T16:14:31;11.60;99.90
9658;DHT22;4867;48.112;11.622;2023-03-25T16:17:00;11.70;99.90
9658;DHT22;4867;48.112;11.622;2023-03-25T16:19:37;11.90;99.90
9658;DHT22;4867;48.112;11.622;2023-03-25T16:22:28;11.90;99.90
9658;DHT22;4867;48.112;11.622;2023-03-25T16:25:00;11.70;99.90
9658;DHT22;4867;48.112;11.622;2023-03-25T16:27:35;11.60;99.90
9658;DHT22;4867;48.112;11.622;2023-03-25T16:30:25;11.50;99.90
9658;DHT22;4867;48.112;11.622;2023-03-25T16:35:48;11.20;99.90
9658;DHT22;4867;48.112;11.622;2023-03-25T16:38:18;11.00;99.90
9658;DHT22;4867;48.112;11.622;2023-03-25T16:40:48;11.10;99.90
9658;DHT22;4867;48.112;11.622;2023-03-25T16:43:24;11.00;99.90
9658;DHT22;4867;48.112;11.622;2023-03-25T16:45:56;10.80;99.90
9658;DHT22;4867;48.112;11.622;2023-03-25T16:48:30;10.90;99.90
9658;DHT22;4867;48.112;11.622;2023-03-25T16:51:30;10.90;99.90
9658;DHT22;4867;48.112;11.622;2023-03-25T16:54:07;10.90;99.90
9658;DHT22;4867;48.112;11.622;2023-03-25T16:56:38;10.90;99.90
9658;DHT22;4867;48.112;11.622;2023-03-25T17:01:40;10.90;99.90
9658;DHT22;4867;48.112;11.622;2023-03-25T17:04:17;10.80;99.90
9658;DHT22;4867;48.112;11.622;2023-03-25T17:06:55;10.80;99.90
9658;DHT22;4867;48.112;11.622;2023-03-25T17:09:26;10.90;99.90
9658;DHT22;4867;48.112;11.622;2023-03-25T17:12:14;11.00;99.90
9658;DHT22;4867;48.112;11.622;2023-03-25T17:14:44;11.00;99.90
9658;DHT22;4867;48.112;11.622;2023-03-25T17:19:50;10.70;99.90
9658;DHT22;4867;48.112;11.622;2023-03-25T17:22:31;10.60;99.90
9658;DHT22;4867;48.112;11.622;2023-03-25T17:25:27;10.40;99.90
9658;DHT22;4867;48.112;11.622;2023-03-25T17:27:57;10.20;99.90
9658;DHT22;4867;48.112;11.622;2023-03-25T17:30:40;10.10;99.90
9658;DHT22;4867;48.112;11.622;2023-03-25T17:33:27;10.00;99.90
9658;DHT22;4867;48.112;11.622;2023-03-25T17:36:01;9.90;99.90
9658;DHT22;4867;48.112;11.622;2023-03-25T17:38:33;9.80;99.90
9658;DHT22;4867;48.112;11.622;2023-03-25T17:41:04;9.70;99.90
9658;DHT22;4867;48.112;11.622;2023-03-25T17:43:34;9.60;99.90
9658;DHT22;4867;48.112;11.622;2023-03-25T17:46:04;9.30;99.90
9658;DHT22;4867;48.112;11.622;2023-03-25T17:48:32;9.40;99.90
9658;DHT22;4867;48.112;11.622;2023-03-25T17:51:00;9.30;99.90
9658;DHT22;4867;48.112;11.622;2023-03-25T17:53:27;9.20;99.90
9658;DHT22;4867;48.112;11.622;2023-03-25T17:55:55;9.30;99.90
9658;DHT22;4867;48.112;11.622;2023-03-25T17:58:25;9.10;99.90
9658;DHT22;4867;48.112;11.622;2023-03-25T18:00:52;9.10;99.90
9658;DHT22;4867;48.112;11.622;2023-03-25T18:03:21;9.00;99.90
9658;DHT22;4867;48.112;11.622;2023-03-25T18:05:50;9.00;99.90
9658;DHT22;4867;48.112;11.622;2023-03-25T18:08:22;9.00;99.90
9658;DHT22;4867;48.112;11.622;2023-03-25T18:10:51;8.90;99.90
9658;DHT22;4867;48.112;11.622;2023-03-25T18:13:20;8.90;99.90
9658;DHT22;4867;48.112;11.622;2023-03-25T18:15:51;8.80;99.90
9658;DHT22;4867;48.112;11.622;2023-03-25T18:18:22;8.80;99.90
9658;DHT22;4867;48.112;11.622;2023-03-25T18:20:53;8.80;99.90
9658;DHT22;4867;48.112;11.622;2023-03-25T18:23:30;8.80;99.90
9658;DHT22;4867;48.112;11.622;2023-03-25T18:25:57;8.70;99.90
9658;DHT22;4867;48.112;11.622;2023-03-25T18:28:24;8.70;99.90
9658;DHT22;4867;48.112;11.622;2023-03-25T18:30:54;8.70;99.90
9658;DHT22;4867;48.112;11.622;2023-03-25T18:33:22;8.60;99.90
9658;DHT22;4867;48.112;11.622;2023-03-25T18:35:50;8.60;99.90
9658;DHT22;4867;48.112;11.622;2023-03-25T18:40:47;8.60;99.90
9658;DHT22;4867;48.112;11.622;2023-03-25T18:43:15;8.60;99.90
9658;DHT22;4867;48.112;11.622;2023-03-25T18:45:43;8.60;99.90
9658;DHT22;4867;48.112;11.622;2023-03-25T18:48:17;8.60;99.90
9658;DHT22;4867;48.112;11.622;2023-03-25T18:50:57;8.50;99.90
9658;DHT22;4867;48.112;11.622;2023-03-25T18:53:27;8.50;99.90
9658;DHT22;4867;48.112;11.622;2023-03-25T18:55:57;8.40;99.90
9658;DHT22;4867;48.112;11.622;2023-03-25T18:58:29;8.40;99.90
9658;DHT22;4867;48.112;11.622;2023-03-25T19:00:58;8.40;99.90
9658;DHT22;4867;48.112;11.622;2023-03-25T19:03:26;8.40;99.90
9658;DHT22;4867;48.112;11.622;2023-03-25T19:06:08;8.30;99.90
9658;DHT22;4867;48.112;11.622;2023-03-25T19:08:38;8.30;99.90
9658;DHT22;4867;48.112;11.622;2023-03-25T19:11:06;8.30;99.90
9658;DHT22;4867;48.112;11.622;2023-03-25T19:13:46;8.20;99.90
9658;DHT22;4867;48.112;11.622;2023-03-25T19:16:14;8.30;99.90
9658;DHT22;4867;48.112;11.622;2023-03-25T19:18:41;8.20;99.90
9658;DHT22;4867;48.112;11.622;2023-03-25T19:21:13;8.10;99.90
9658;DHT22;4867;48.112;11.622;2023-03-25T19:23:40;8.20;99.90
9658;DHT22;4867;48.112;11.622;2023-03-25T19:26:09;8.00;99.90